Time;durP1;ratioP1;P1;durP2;ratioP2;P2;SDS_P1;SDS_P2;PMS_P1;PMS_P2;Temp;Humidity;BMP_temperature;BMP_pressure;BME280_temperature;BME280_humidity;BME280_pressure;Samples;Min_cycle;Max_cycle;Signal;HPM_P1;HPM_P2
2023/09/09 00:02:25;;;;;;;29.23;16.53;;;32.30;47.90;;;;;;5079427;27;89083;-58
2023/09/09 00:04:54;;;;;;;26.77;15.83;;;32.30;47.90;;;;;;5080032;27;88851;-60
2023/09/09 00:07:22;;;;;;;25.30;16.10;;;32.30;47.90;;;;;;5080882;27;87697;-59
2023/09/09 00:09:50;;;;;;;24.37;14.93;;;32.30;47.90;;;;;;5076924;27;89708;-59
2023/09/09 00:12:19;;;;;;;31.90;15.73;;;32.30;47.90;;;;;;5080177;27;88054;-59
2023/09/09 00:14:47;;;;;;;27.43;15.97;;;32.30;47.90;;;;;;5079733;27;88860;-59
2023/09/09 00:17:16;;;;;;;25.37;15.10;;;32.20;47.90;;;;;;5080407;27;87576;-59
2023/09/09 00:19:44;;;;;;;25.93;14.70;;;32.20;47.90;;;;;;5079854;27;89693;-59
2023/09/09 00:22:12;;;;;;;24.10;13.77;;;32.20;47.90;;;;;;5077977;27;88922;-59
2023/09/09 00:24:40;;;;;;;28.20;15.20;;;32.20;47.90;;;;;;5079767;27;92702;-59
2023/09/09 00:27:08;;;;;;;26.87;15.77;;;32.20;47.90;;;;;;5080339;27;87679;-58
2023/09/09 00:29:36;;;;;;;28.63;16.23;;;32.20;47.90;;;;;;5080780;27;89670;-59
2023/09/09 00:32:05;;;;;;;24.77;15.30;;;32.20;47.90;;;;;;5080417;27;88749;-59
2023/09/09 00:34:35;;;;;;;22.20;14.67;;;32.10;47.90;;;;;;5080933;27;89085;-58
2023/09/09 00:37:04;;;;;;;25.63;15.20;;;32.20;47.90;;;;;;5080827;27;87505;-59
2023/09/09 00:39:32;;;;;;;25.37;15.67;;;32.20;47.90;;;;;;5079692;27;89713;-58
2023/09/09 00:42:00;;;;;;;30.77;16.70;;;32.10;47.90;;;;;;5080338;27;89121;-58
2023/09/09 00:44:28;;;;;;;28.97;16.20;;;32.10;47.90;;;;;;5080399;27;88699;-58
2023/09/09 00:46:56;;;;;;;32.50;15.80;;;32.10;48.50;;;;;;5080208;27;88260;-58
2023/09/09 00:49:24;;;;;;;27.00;14.93;;;32.10;47.90;;;;;;5080130;27;89692;-58
2023/09/09 00:51:54;;;;;;;24.03;14.67;;;32.00;47.90;;;;;;5079963;27;89045;-58
2023/09/09 00:54:22;;;;;;;25.20;15.33;;;32.00;48.00;;;;;;5079690;27;87823;-58
2023/09/09 00:56:51;;;;;;;27.03;15.20;;;32.00;48.00;;;;;;5079481;27;88848;-59
2023/09/09 00:59:19;;;;;;;25.80;14.23;;;32.00;48.00;;;;;;5080857;27;88513;-59
2023/09/09 01:01:47;;;;;;;27.70;15.43;;;32.00;47.90;;;;;;5072504;27;89053;-58
2023/09/09 01:04:15;;;;;;;23.77;13.90;;;32.00;48.60;;;;;;5071940;27;89178;-58
2023/09/09 01:06:44;;;;;;;26.67;15.30;;;32.00;47.90;;;;;;5079214;27;87511;-59
2023/09/09 01:09:13;;;;;;;25.53;14.50;;;31.90;47.90;;;;;;5079265;27;89642;-58
2023/09/09 01:11:41;;;;;;;27.83;16.27;;;31.90;47.90;;;;;;5078768;27;88767;-59
2023/09/09 01:14:10;;;;;;;24.50;15.20;;;32.00;47.90;;;;;;5078470;27;89812;-58
2023/09/09 01:16:39;;;;;;;25.97;15.17;;;31.90;47.90;;;;;;5077317;27;87517;-59
2023/09/09 01:19:07;;;;;;;27.23;15.47;;;32.00;48.00;;;;;;5079202;27;89645;-58
2023/09/09 01:21:36;;;;;;;24.53;15.03;;;31.90;47.90;;;;;;5079353;27;88055;-59
2023/09/09 01:24:06;;;;;;;25.47;14.30;;;31.90;47.90;;;;;;5076387;27;87803;-58
2023/09/09 01:26:34;;;;;;;23.97;14.37;;;31.90;47.90;;;;;;5079052;27;87669;-58
2023/09/09 01:29:02;;;;;;;24.13;14.93;;;31.90;47.90;;;;;;5079330;27;88385;-58
2023/09/09 01:31:31;;;;;;;23.33;14.60;;;31.90;47.90;;;;;;5078662;27;87823;-58
2023/09/09 01:34:00;;;;;;;22.03;14.07;;;31.90;47.90;;;;;;5076547;27;87849;-58
2023/09/09 01:36:28;;;;;;;26.43;13.90;;;31.90;47.90;;;;;;5078676;27;88006;-59
2023/09/09 01:38:56;;;;;;;27.67;14.60;;;31.90;47.90;;;;;;5079401;27;89684;-58
2023/09/09 01:41:25;;;;;;;22.60;13.77;;;31.90;47.90;;;;;;5076718;27;89301;-58
2023/09/09 01:43:53;;;;;;;25.13;14.17;;;31.90;48.00;;;;;;5079464;27;88926;-59
2023/09/09 01:46:21;;;;;;;22.93;13.93;;;31.90;47.90;;;;;;5078996;27;87841;-58
2023/09/09 01:48:50;;;;;;;22.27;12.83;;;31.80;47.80;;;;;;5079108;27;88493;-58
2023/09/09 01:51:18;;;;;;;21.67;13.50;;;31.80;47.90;;;;;;5079316;27;88132;-59
2023/09/09 01:53:46;;;;;;;22.43;13.77;;;31.80;48.60;;;;;;5076326;27;88845;-59
2023/09/09 01:56:14;;;;;;;28.30;17.10;;;31.80;47.90;;;;;;5079008;27;87677;-58
2023/09/09 01:58:43;;;;;;;25.27;14.73;;;31.80;47.90;;;;;;5078848;27;88468;-58
2023/09/09 02:01:11;;;;;;;24.47;14.77;;;31.80;47.90;;;;;;5078513;27;90289;-58
2023/09/09 02:03:39;;;;;;;20.23;14.00;;;31.80;48.50;;;;;;5078352;27;89843;-58
2023/09/09 02:06:08;;;;;;;23.83;14.07;;;31.80;47.90;;;;;;5078521;27;87513;-58
2023/09/09 02:08:36;;;;;;;22.73;14.43;;;31.80;47.90;;;;;;5078227;27;88802;-58
2023/09/09 02:11:04;;;;;;;23.53;14.03;;;31.80;47.90;;;;;;5078601;27;88157;-58
2023/09/09 02:13:32;;;;;;;20.53;13.60;;;31.80;48.60;;;;;;5078409;27;87826;-58
2023/09/09 02:16:05;;;;;;;21.70;13.70;;;31.70;47.80;;;;;;5078567;27;87610;-58
2023/09/09 02:18:37;;;;;;;26.90;15.60;;;31.70;47.90;;;;;;5078112;27;89628;-58
2023/09/09 02:21:05;;;;;;;21.30;13.87;;;31.70;47.90;;;;;;5075838;27;87929;-59
2023/09/09 02:23:33;;;;;;;19.63;13.77;;;31.70;47.90;;;;;;5071626;27;89203;-58
2023/09/09 02:26:02;;;;;;;28.40;14.80;;;31.70;47.90;;;;;;5078680;27;87957;-58
2023/09/09 02:28:31;;;;;;;22.90;14.57;;;31.70;47.90;;;;;;5082342;27;89550;-58
2023/09/09 02:30:59;;;;;;;25.17;14.57;;;31.70;48.60;;;;;;5082192;27;89073;-58
2023/09/09 02:33:29;;;;;;;28.27;14.27;;;31.70;47.90;;;;;;5081437;27;88777;-58
2023/09/09 02:35:59;;;;;;;27.07;15.13;;;31.70;47.90;;;;;;5081891;27;87523;-58
2023/09/09 02:38:27;;;;;;;21.80;14.50;;;31.70;47.90;;;;;;5078562;27;89693;-58
2023/09/09 02:40:55;;;;;;;20.43;12.73;;;31.70;47.90;;;;;;5081210;27;88008;-58
2023/09/09 02:43:23;;;;;;;23.43;14.47;;;31.60;47.90;;;;;;5081372;27;87823;-58
2023/09/09 02:45:52;;;;;;;26.60;14.10;;;31.60;48.60;;;;;;5078137;27;87170;-58
2023/09/09 02:48:20;;;;;;;22.87;14.27;;;31.60;47.90;;;;;;5078604;27;88539;-58
2023/09/09 02:50:49;;;;;;;26.93;15.10;;;31.60;47.90;;;;;;5077227;27;89891;-59
2023/09/09 02:53:17;;;;;;;26.93;15.43;;;31.60;47.90;;;;;;5072110;27;88632;-59
2023/09/09 02:55:45;;;;;;;22.37;13.73;;;31.60;47.90;;;;;;5081659;27;87633;-59
2023/09/09 02:58:14;;;;;;;27.23;14.77;;;31.60;48.00;;;;;;5081748;27;88365;-58
2023/09/09 03:00:42;;;;;;;24.57;14.83;;;31.60;48.00;;;;;;5081631;27;89243;-59
2023/09/09 03:03:10;;;;;;;21.23;13.63;;;31.60;48.00;;;;;;5081452;27;87913;-59
2023/09/09 03:05:38;;;;;;;25.20;15.30;;;31.50;47.90;;;;;;5078431;27;87624;-58
2023/09/09 03:08:08;;;;;;;26.27;15.07;;;31.50;47.90;;;;;;5080801;27;88487;-58
2023/09/09 03:10:37;;;;;;;25.40;14.67;;;31.60;48.00;;;;;;5081212;27;89197;-58
2023/09/09 03:13:05;;;;;;;25.80;15.83;;;31.50;47.90;;;;;;5080630;27;88886;-58
2023/09/09 03:15:33;;;;;;;24.83;14.60;;;31.50;47.90;;;;;;5081355;27;87994;-59
2023/09/09 03:18:01;;;;;;;26.37;14.93;;;31.50;48.00;;;;;;5081035;27;89651;-58
2023/09/09 03:20:29;;;;;;;24.63;15.40;;;31.50;47.90;;;;;;5080824;27;88148;-58
2023/09/09 03:22:59;;;;;;;24.87;14.03;;;31.50;48.00;;;;;;5075349;27;89035;-58
2023/09/09 03:25:28;;;;;;;19.20;12.90;;;31.50;48.00;;;;;;5071460;27;88524;-58
2023/09/09 03:27:56;;;;;;;21.27;14.60;;;31.50;48.00;;;;;;5081096;27;89753;-58
2023/09/09 03:30:24;;;;;;;18.90;12.57;;;31.50;48.00;;;;;;5080625;27;89149;-58
2023/09/09 03:32:52;;;;;;;22.87;15.13;;;31.50;48.00;;;;;;5080669;27;87629;-58
2023/09/09 03:35:20;;;;;;;23.47;14.60;;;31.50;48.00;;;;;;5081019;27;87558;-59
2023/09/09 03:37:48;;;;;;;23.00;14.07;;;31.50;48.00;;;;;;5080892;27;89659;-59
2023/09/09 03:40:17;;;;;;;23.43;14.30;;;31.50;48.00;;;;;;5080763;27;89008;-59
2023/09/09 03:42:46;;;;;;;24.83;14.13;;;31.50;48.00;;;;;;5080598;27;88782;-59
2023/09/09 03:45:14;;;;;;;21.27;14.20;;;31.40;48.00;;;;;;5080357;27;88784;-58
2023/09/09 03:47:42;;;;;;;27.77;15.43;;;31.40;48.00;;;;;;5080004;27;88545;-58
2023/09/09 03:50:10;;;;;;;25.07;14.73;;;31.40;48.00;;;;;;5080780;27;88075;-58
2023/09/09 03:52:38;;;;;;;23.67;14.23;;;31.40;48.00;;;;;;5077845;27;87798;-59
2023/09/09 03:55:07;;;;;;;25.27;14.10;;;31.40;48.00;;;;;;5081004;27;87657;-58
2023/09/09 03:57:35;;;;;;;25.27;14.53;;;31.40;48.00;;;;;;5080575;27;89735;-59
2023/09/09 04:00:05;;;;;;;27.57;14.90;;;31.40;48.10;;;;;;5080544;27;89131;-58
2023/09/09 04:02:33;;;;;;;24.97;13.97;;;31.40;48.10;;;;;;5080407;27;88820;-58
2023/09/09 04:05:01;;;;;;;26.20;14.53;;;31.40;48.10;;;;;;5080707;27;88147;-59
2023/09/09 04:07:33;;;;;;;23.97;14.17;;;31.40;48.10;;;;;;5081149;27;89483;-58
2023/09/09 04:10:01;;;;;;;23.03;13.73;;;31.30;48.10;;;;;;5080462;27;89134;-58
2023/09/09 04:12:29;;;;;;;20.43;12.67;;;31.40;48.10;;;;;;5080704;27;87777;-59
2023/09/09 04:14:57;;;;;;;23.70;14.03;;;31.30;48.10;;;;;;5080768;27;87323;-59
2023/09/09 04:17:27;;;;;;;22.50;13.97;;;31.30;48.10;;;;;;5080809;27;88635;-58
2023/09/09 04:19:57;;;;;;;23.90;13.37;;;31.30;48.10;;;;;;5080502;27;88176;-58
2023/09/09 04:22:26;;;;;;;20.77;13.33;;;31.30;48.10;;;;;;5080486;27;88950;-58
2023/09/09 04:24:54;;;;;;;21.60;13.63;;;31.30;48.10;;;;;;5080462;27;87526;-58
2023/09/09 04:27:22;;;;;;;23.77;14.20;;;31.30;48.10;;;;;;5079728;27;87480;-58
2023/09/09 04:29:50;;;;;;;23.63;13.67;;;31.30;48.10;;;;;;5079348;27;90490;-58
2023/09/09 04:32:18;;;;;;;24.30;13.10;;;31.30;48.10;;;;;;5080307;27;87547;-58
2023/09/09 04:34:48;;;;;;;24.93;13.83;;;31.30;48.10;;;;;;5080992;27;87655;-58
2023/09/09 04:37:16;;;;;;;24.03;14.63;;;31.20;48.10;;;;;;5080610;27;89852;-58
2023/09/09 04:39:44;;;;;;;22.17;12.87;;;31.20;48.10;;;;;;5060345;27;89914;-58
2023/09/09 04:42:12;;;;;;;21.53;13.33;;;31.20;48.10;;;;;;5059865;27;89133;-58
2023/09/09 04:44:40;;;;;;;17.90;12.03;;;31.20;48.10;;;;;;5060108;27;87590;-58
2023/09/09 04:47:08;;;;;;;18.77;11.87;;;31.20;48.20;;;;;;5059558;27;89175;-59
2023/09/09 04:49:37;;;;;;;18.53;11.37;;;31.20;48.20;;;;;;5058987;27;89113;-58
2023/09/09 04:52:06;;;;;;;21.00;12.77;;;31.20;48.80;;;;;;5059841;27;89001;-58
2023/09/09 04:54:34;;;;;;;20.67;12.13;;;31.10;48.10;;;;;;5069736;27;88025;-58
2023/09/09 04:57:04;;;;;;;19.20;11.70;;;31.20;48.90;;;;;;5071845;27;89621;-58
2023/09/09 04:59:33;;;;;;;27.40;15.57;;;31.10;48.20;;;;;;5077635;27;89049;-58
2023/09/09 05:02:01;;;;;;;24.13;13.70;;;31.20;48.20;;;;;;5076993;27;87835;-58
2023/09/09 05:04:29;;;;;;;26.43;13.17;;;31.10;48.20;;;;;;5076950;27;89074;-58
2023/09/09 05:06:57;;;;;;;24.93;13.37;;;31.10;48.20;;;;;;5067432;27;89650;-58
2023/09/09 05:09:27;;;;;;;20.67;13.30;;;31.10;48.20;;;;;;5076773;27;88851;-58
2023/09/09 05:11:55;;;;;;;23.97;14.80;;;31.10;48.20;;;;;;5076275;27;90244;-58
2023/09/09 05:14:23;;;;;;;21.90;13.90;;;31.10;48.20;;;;;;5078944;27;87522;-59
2023/09/09 05:16:51;;;;;;;23.03;13.90;;;31.10;48.20;;;;;;5078126;27;89658;-59
2023/09/09 05:19:19;;;;;;;22.13;13.83;;;31.10;48.20;;;;;;5078160;27;89203;-58
2023/09/09 05:21:47;;;;;;;21.27;13.07;;;31.10;48.20;;;;;;5079060;27;89888;-59
2023/09/09 05:24:15;;;;;;;22.57;14.50;;;31.10;48.20;;;;;;5078143;27;87432;-59
2023/09/09 05:26:45;;;;;;;26.97;14.60;;;31.10;48.20;;;;;;5078584;27;89675;-59
2023/09/09 05:29:13;;;;;;;34.00;14.37;;;31.10;48.20;;;;;;5078572;27;88172;-59
2023/09/09 05:31:41;;;;;;;22.87;13.87;;;31.10;48.20;;;;;;5078411;27;87906;-59
2023/09/09 05:34:10;;;;;;;26.60;13.83;;;31.10;48.20;;;;;;5076681;27;87687;-59
2023/09/09 05:36:38;;;;;;;24.40;13.63;;;31.10;48.20;;;;;;5078605;27;89528;-59
2023/09/09 05:39:06;;;;;;;23.80;13.13;;;31.10;48.20;;;;;;5076764;27;88141;-59
2023/09/09 05:41:34;;;;;;;21.30;13.73;;;31.10;48.20;;;;;;5071373;27;87478;-59
2023/09/09 05:44:04;;;;;;;20.50;12.60;;;31.10;48.20;;;;;;5073863;27;87944;-58
2023/09/09 05:46:32;;;;;;;29.07;14.93;;;31.10;48.20;;;;;;5067944;27;89827;-58
2023/09/09 05:49:00;;;;;;;25.53;14.47;;;31.10;48.20;;;;;;5071678;27;89081;-58
2023/09/09 05:51:28;;;;;;;16.93;12.13;;;31.10;48.20;;;;;;5078998;27;88881;-58
2023/09/09 05:53:56;;;;;;;23.70;13.13;;;31.10;48.20;;;;;;5078841;27;87617;-59
2023/09/09 05:56:24;;;;;;;21.73;12.17;;;31.10;48.20;;;;;;5078968;27;88499;-58
2023/09/09 05:58:53;;;;;;;26.27;13.00;;;31.10;48.20;;;;;;5078685;27;88191;-58
2023/09/09 06:01:22;;;;;;;19.53;11.47;;;31.10;48.20;;;;;;5080840;27;87828;-58
2023/09/09 06:03:54;;;;;;;20.80;11.13;;;31.10;48.20;;;;;;5082751;27;87536;-58
2023/09/09 06:06:22;;;;;;;22.80;12.10;;;31.10;48.20;;;;;;5080659;27;89616;-59
2023/09/09 06:08:51;;;;;;;19.53;11.93;;;31.10;48.20;;;;;;5082013;27;90188;-59
2023/09/09 06:11:19;;;;;;;17.80;11.07;;;31.10;48.20;;;;;;5079830;27;87659;-59
2023/09/09 06:13:47;;;;;;;23.93;12.77;;;31.10;48.20;;;;;;5082416;27;87619;-58
2023/09/09 06:16:15;;;;;;;20.53;11.47;;;31.10;48.20;;;;;;5080220;27;88618;-58
2023/09/09 06:18:44;;;;;;;17.87;9.80;;;31.10;48.20;;;;;;5075122;27;89276;-59
2023/09/09 06:21:12;;;;;;;17.97;9.83;;;31.10;48.20;;;;;;5079813;27;87672;-59
2023/09/09 06:23:40;;;;;;;18.83;10.70;;;31.10;48.20;;;;;;5079244;27;87765;-59
2023/09/09 06:26:08;;;;;;;19.07;11.07;;;31.10;48.20;;;;;;5079205;27;89646;-58
2023/09/09 06:28:36;;;;;;;18.67;11.07;;;31.10;48.20;;;;;;5076586;27;89128;-58
2023/09/09 06:31:05;;;;;;;16.93;9.97;;;31.10;48.20;;;;;;5078844;27;87997;-58
2023/09/09 06:33:33;;;;;;;21.83;11.40;;;31.10;48.20;;;;;;5078254;27;88215;-59
2023/09/09 06:36:02;;;;;;;17.93;11.97;;;31.10;48.30;;;;;;5078914;27;89600;-59
2023/09/09 06:38:30;;;;;;;16.67;11.20;;;31.10;48.30;;;;;;5079125;27;88465;-58
2023/09/09 06:40:59;;;;;;;20.67;11.33;;;31.10;48.30;;;;;;5077490;27;87775;-58
2023/09/09 06:43:27;;;;;;;16.40;9.87;;;31.10;48.30;;;;;;5079178;27;87574;-59
2023/09/09 06:45:55;;;;;;;15.17;10.87;;;31.10;48.40;;;;;;5079928;27;88543;-58
2023/09/09 06:48:23;;;;;;;18.07;10.50;;;31.10;48.40;;;;;;5079039;27;89068;-58
2023/09/09 06:50:52;;;;;;;15.80;10.33;;;31.10;48.40;;;;;;5079448;27;87807;-59
2023/09/09 06:53:21;;;;;;;24.07;11.60;;;31.10;48.40;;;;;;5076941;27;88066;-59
2023/09/09 06:55:50;;;;;;;20.03;11.27;;;31.10;48.40;;;;;;5079237;27;89233;-59
2023/09/09 06:58:18;;;;;;;16.77;11.40;;;31.10;48.40;;;;;;5075864;27;90051;-59
2023/09/09 07:00:50;;;;;;;14.97;10.37;;;31.10;48.40;;;;;;5078045;27;87655;-59
2023/09/09 07:03:18;;;;;;;20.53;11.17;;;31.10;49.20;;;;;;5075783;27;88169;-59
2023/09/09 07:05:47;;;;;;;18.07;11.23;;;31.10;48.50;;;;;;5078776;27;87523;-59
2023/09/09 07:08:15;;;;;;;17.77;11.60;;;31.10;48.50;;;;;;5079118;27;87608;-59
2023/09/09 07:10:50;;;;;;;22.60;10.93;;;31.10;48.50;;;;;;5078150;27;87487;-59
2023/09/09 07:13:19;;;;;;;16.73;10.27;;;31.10;48.60;;;;;;5074859;27;88174;-59
2023/09/09 07:15:47;;;;;;;17.00;11.20;;;31.10;48.60;;;;;;5078674;27;88422;-59
2023/09/09 07:18:15;;;;;;;19.13;10.93;;;31.10;48.60;;;;;;5078590;27;87526;-59
2023/09/09 07:20:46;;;;;;;20.83;11.50;;;31.10;48.60;;;;;;5078315;27;87883;-58
2023/09/09 07:23:14;;;;;;;15.13;10.90;;;31.10;49.30;;;;;;5077559;27;88571;-58
2023/09/09 07:25:43;;;;;;;17.63;11.43;;;31.10;48.60;;;;;;5077828;27;89627;-59
2023/09/09 07:28:12;;;;;;;17.73;11.90;;;31.10;48.60;;;;;;5077952;27;87813;-58
2023/09/09 07:30:41;;;;;;;17.70;10.47;;;31.10;48.70;;;;;;5075404;27;88883;-58
2023/09/09 07:33:09;;;;;;;17.53;11.13;;;31.10;48.70;;;;;;5078172;27;87526;-59
2023/09/09 07:35:37;;;;;;;16.13;10.03;;;31.10;49.30;;;;;;5075198;27;88713;-59
2023/09/09 07:38:06;;;;;;;19.57;10.33;;;31.10;48.60;;;;;;5077687;27;88235;-59
2023/09/09 07:40:34;;;;;;;14.90;9.33;;;31.10;48.60;;;;;;5077465;27;87996;-59
2023/09/09 07:43:02;;;;;;;17.37;10.27;;;31.10;48.60;;;;;;5079166;27;88090;-59
2023/09/09 07:45:32;;;;;;;16.97;9.70;;;31.10;48.60;;;;;;5077674;27;88512;-59
2023/09/09 07:48:00;;;;;;;13.60;8.67;;;31.10;48.60;;;;;;5075452;27;90028;-58
2023/09/09 07:50:28;;;;;;;11.63;8.43;;;31.10;48.50;;;;;;5078916;27;88082;-59
2023/09/09 07:52:57;;;;;;;11.80;7.70;;;31.10;48.50;;;;;;5078861;27;87502;-59
2023/09/09 07:55:25;;;;;;;12.07;7.87;;;30.60;48.20;;;;;;5078406;27;89624;-58
2023/09/09 07:57:53;;;;;;;10.90;7.10;;;31.10;48.50;;;;;;5078057;27;87996;-59
2023/09/09 08:00:22;;;;;;;10.73;7.50;;;31.10;48.40;;;;;;5077905;27;89381;-58
2023/09/09 08:02:51;;;;;;;10.07;6.97;;;31.10;48.40;;;;;;5078530;27;87582;-58
2023/09/09 08:05:19;;;;;;;10.03;5.20;;;31.10;48.40;;;;;;5075515;27;89744;-59
2023/09/09 08:07:47;;;;;;;8.67;5.57;;;31.10;48.30;;;;;;5078896;27;88073;-59
2023/09/09 08:10:16;;;;;;;8.13;5.27;;;31.10;48.20;;;;;;5078988;27;87660;-59
2023/09/09 08:12:44;;;;;;;7.87;5.87;;;31.10;48.00;;;;;;5078773;27;87940;-58
2023/09/09 08:15:12;;;;;;;8.67;5.10;;;31.10;48.00;;;;;;5078830;27;87372;-59
2023/09/09 08:17:51;;;;;;;7.57;5.37;;;31.10;47.90;;;;;;5078600;27;89164;-59
2023/09/09 08:20:20;;;;;;;6.33;4.97;;;31.10;47.90;;;;;;5079029;27;88859;-59
2023/09/09 08:22:49;;;;;;;5.07;4.27;;;31.10;47.80;;;;;;5079122;27;87879;-59
2023/09/09 08:25:17;;;;;;;9.87;4.97;;;31.10;47.80;;;;;;5076911;27;88688;-59
2023/09/09 08:27:45;;;;;;;5.70;4.30;;;31.10;47.70;;;;;;5078593;27;90002;-59
2023/09/09 08:30:15;;;;;;;7.27;4.70;;;31.10;47.70;;;;;;5078088;27;87746;-57
2023/09/09 08:32:43;;;;;;;5.63;4.07;;;31.10;47.60;;;;;;5078209;27;88086;-57
2023/09/09 08:35:12;;;;;;;8.07;4.40;;;31.10;47.60;;;;;;5077687;27;90033;-57
2023/09/09 08:37:40;;;;;;;6.97;3.93;;;31.10;47.50;;;;;;5077806;27;89848;-58
2023/09/09 08:40:10;;;;;;;4.50;3.67;;;31.10;47.50;;;;;;5078517;27;88628;-58
2023/09/09 08:42:43;;;;;;;5.20;3.70;;;31.10;47.50;;;;;;5078378;27;88196;-57
2023/09/09 08:45:17;;;;;;;5.70;3.50;;;31.10;47.40;;;;;;5077312;27;88518;-57
2023/09/09 08:47:45;;;;;;;5.07;3.30;;;31.10;47.30;;;;;;5076027;27;89172;-57
2023/09/09 08:50:15;;;;;;;3.60;3.00;;;31.10;47.30;;;;;;5077897;27;87609;-57
2023/09/09 08:52:43;;;;;;;5.73;2.90;;;31.10;47.20;;;;;;5078204;27;87657;-57
2023/09/09 08:55:11;;;;;;;3.27;2.73;;;31.10;47.20;;;;;;5078274;27;88548;-57
2023/09/09 08:57:39;;;;;;;5.83;3.17;;;31.10;47.10;;;;;;5076411;27;87890;-57
2023/09/09 09:00:08;;;;;;;4.00;2.90;;;31.10;47.00;;;;;;5075989;27;87797;-57
2023/09/09 09:02:36;;;;;;;4.40;3.10;;;31.10;47.00;;;;;;5076756;27;88022;-57
2023/09/09 09:05:05;;;;;;;4.83;3.47;;;31.10;46.90;;;;;;5074702;27;88330;-58
2023/09/09 09:07:35;;;;;;;3.50;2.90;;;31.10;46.90;;;;;;5070463;27;89121;-58
2023/09/09 09:10:03;;;;;;;3.27;2.90;;;31.20;47.00;;;;;;5075505;27;88947;-57
2023/09/09 09:12:32;;;;;;;2.83;2.40;;;31.10;46.80;;;;;;5078166;27;87618;-58
2023/09/09 09:15:00;;;;;;;4.03;2.40;;;31.20;46.90;;;;;;5077414;27;89263;-58
2023/09/09 09:17:28;;;;;;;4.80;3.20;;;31.20;46.80;;;;;;5076371;27;89078;-58
2023/09/09 09:19:57;;;;;;;6.17;3.23;;;31.20;46.70;;;;;;5074998;27;88941;-57
2023/09/09 09:22:25;;;;;;;4.40;2.47;;;31.20;46.70;;;;;;5077013;27;87520;-57
2023/09/09 09:24:54;;;;;;;3.60;2.70;;;31.20;46.70;;;;;;5076509;27;88608;-57
2023/09/09 09:27:22;;;;;;;4.23;2.87;;;31.20;46.60;;;;;;5076402;27;90183;-58
2023/09/09 09:29:50;;;;;;;4.97;2.63;;;31.20;46.60;;;;;;5076074;27;88643;-58
2023/09/09 09:32:19;;;;;;;4.90;2.80;;;31.30;46.70;;;;;;5077203;27;87550;-57
2023/09/09 09:34:49;;;;;;;3.30;2.97;;;31.30;46.60;;;;;;5076472;27;89805;-58
2023/09/09 09:37:17;;;;;;;4.73;3.00;;;31.30;46.60;;;;;;5071430;27;90196;-57
2023/09/09 09:39:46;;;;;;;3.83;3.30;;;31.30;46.60;;;;;;5080310;27;87906;-57
2023/09/09 09:42:16;;;;;;;4.03;2.97;;;31.30;46.60;;;;;;5080666;27;87727;-58
2023/09/09 09:44:44;;;;;;;3.63;3.20;;;31.30;46.60;;;;;;5080669;27;90508;-57
2023/09/09 09:47:12;;;;;;;3.80;3.13;;;31.30;46.70;;;;;;5080682;27;88479;-57
2023/09/09 09:49:41;;;;;;;4.13;3.07;;;31.40;46.70;;;;;;5080664;27;88765;-59
2023/09/09 09:52:09;;;;;;;4.77;3.00;;;31.40;46.70;;;;;;5080046;27;88076;-57
2023/09/09 09:54:38;;;;;;;4.03;3.03;;;31.40;46.70;;;;;;5077605;27;89667;-56
2023/09/09 09:57:08;;;;;;;4.73;3.07;;;31.40;46.60;;;;;;5080076;27;88196;-56
2023/09/09 09:59:38;;;;;;;3.30;2.93;;;31.40;46.60;;;;;;5080602;27;88896;-56
2023/09/09 10:02:06;;;;;;;3.87;3.40;;;31.50;46.70;;;;;;5079530;27;87608;-59
2023/09/09 10:04:38;;;;;;;5.60;4.10;;;31.50;46.70;;;;;;5079851;27;88441;-58
2023/09/09 10:07:06;;;;;;;6.33;5.13;;;31.50;46.60;;;;;;5080143;27;89031;-58
2023/09/09 10:09:42;;;;;;;9.17;7.00;;;31.40;46.50;;;;;;5081447;27;87973;-55
2023/09/09 10:12:13;;;;;;;7.97;4.97;;;31.40;46.50;;;;;;5082094;27;87952;-57
2023/09/09 10:14:42;;;;;;;5.30;4.73;;;31.40;46.50;;;;;;5080852;27;89699;-57
2023/09/09 10:17:10;;;;;;;5.30;4.47;;;31.40;46.40;;;;;;5080411;27;89067;-56
2023/09/09 10:19:38;;;;;;;7.10;4.33;;;31.40;46.40;;;;;;5081011;27;89836;-57
2023/09/09 10:22:06;;;;;;;5.23;3.87;;;31.40;46.50;;;;;;5080992;27;87946;-57
2023/09/09 10:24:34;;;;;;;7.17;3.77;;;31.50;46.50;;;;;;5079532;27;87671;-57
2023/09/09 10:27:04;;;;;;;6.33;5.00;;;31.50;47.00;;;;;;5079072;27;89181;-58
2023/09/09 10:29:32;;;;;;;7.83;4.60;;;31.50;46.20;;;;;;5079896;27;88112;-58
2023/09/09 10:32:02;;;;;;;8.53;5.60;;;31.60;46.20;;;;;;5078413;27;87959;-57
2023/09/09 10:34:31;;;;;;;6.03;4.87;;;31.50;46.20;;;;;;5080446;27;88880;-57
2023/09/09 10:37:00;;;;;;;7.47;5.17;;;31.50;46.10;;;;;;5077658;27;89202;-55
2023/09/09 10:39:29;;;;;;;5.73;4.47;;;31.60;46.20;;;;;;5079976;27;88815;-57
2023/09/09 10:41:58;;;;;;;6.97;4.23;;;31.60;46.20;;;;;;5076755;27;88009;-58
2023/09/09 10:44:26;;;;;;;5.03;4.33;;;31.60;46.10;;;;;;5079938;27;87662;-57
2023/09/09 10:46:55;;;;;;;6.47;4.50;;;31.70;46.10;;;;;;5078010;27;88061;-58
2023/09/09 10:49:30;;;;;;;5.13;4.20;;;31.70;46.10;;;;;;5079830;27;87860;-58
2023/09/09 10:51:59;;;;;;;6.03;3.87;;;31.70;46.10;;;;;;5076990;27;87564;-58
2023/09/09 10:54:27;;;;;;;7.37;4.70;;;31.70;46.00;;;;;;5079511;27;88578;-57
2023/09/09 10:56:57;;;;;;;6.43;4.93;;;31.80;46.00;;;;;;5079923;27;88115;-58
2023/09/09 10:59:28;;;;;;;4.90;4.10;;;31.70;45.90;;;;;;5079770;27;87965;-58
2023/09/09 11:02:10;;;;;;;6.97;5.07;;;31.70;46.00;;;;;;5079730;27;88095;-57
2023/09/09 11:04:40;;;;;;;6.43;5.27;;;31.70;46.00;;;;;;5078706;27;88456;-57
2023/09/09 11:07:09;;;;;;;5.47;4.57;;;31.80;46.00;;;;;;5078463;27;89092;-58
2023/09/09 11:09:38;;;;;;;7.23;5.10;;;31.80;46.00;;;;;;5076478;27;88919;-58
2023/09/09 11:12:15;;;;;;;9.13;5.47;;;31.90;46.00;;;;;;5079110;27;87617;-58
2023/09/09 11:14:45;;;;;;;4.93;4.30;;;31.90;46.00;;;;;;5076720;27;88684;-58
2023/09/09 11:17:13;;;;;;;9.63;5.10;;;31.90;45.80;;;;;;5078384;27;88881;-58
2023/09/09 11:19:43;;;;;;;6.37;4.77;;;31.80;45.80;;;;;;5078662;27;87657;-58
2023/09/09 11:22:12;;;;;;;7.80;4.17;;;31.90;46.00;;;;;;5079052;27;87724;-58
2023/09/09 11:24:40;;;;;;;6.13;4.90;;;31.90;45.90;;;;;;5076061;27;88520;-58
2023/09/09 11:27:08;;;;;;;5.43;4.63;;;31.90;45.90;;;;;;5078670;27;89292;-58
2023/09/09 11:29:36;;;;;;;6.20;4.40;;;31.90;45.90;;;;;;5077679;27;88767;-58
2023/09/09 11:32:08;;;;;;;6.90;4.17;;;31.90;45.80;;;;;;5078989;27;87860;-58
2023/09/09 11:34:36;;;;;;;5.40;3.80;;;32.00;45.90;;;;;;5073884;27;89199;-59
2023/09/09 11:37:06;;;;;;;5.90;4.23;;;32.00;45.80;;;;;;5078489;27;88026;-59
2023/09/09 11:39:40;;;;;;;5.20;4.50;;;32.00;45.80;;;;;;5079340;27;87558;-58
2023/09/09 11:42:09;;;;;;;6.03;4.80;;;32.10;45.80;;;;;;5065679;27;87776;-59
2023/09/09 11:44:39;;;;;;;5.37;4.70;;;32.10;45.80;;;;;;5058979;27;88402;-58
2023/09/09 11:47:07;;;;;;;5.57;4.40;;;32.10;45.80;;;;;;5058107;27;89158;-59
2023/09/09 11:49:38;;;;;;;5.33;3.83;;;32.10;45.80;;;;;;5062859;27;88888;-58
2023/09/09 11:52:07;;;;;;;4.63;3.43;;;32.10;45.80;;;;;;5078066;27;87530;-58
2023/09/09 11:54:35;;;;;;;5.23;3.80;;;32.10;45.70;;;;;;5078467;27;89664;-58
2023/09/09 11:57:07;;;;;;;6.53;4.17;;;32.20;45.80;;;;;;5069287;27;89335;-58
2023/09/09 11:59:44;;;;;;;5.17;4.17;;;32.20;45.70;;;;;;5070091;27;89929;-58
2023/09/09 12:02:19;;;;;;;4.50;3.80;;;32.20;45.70;;;;;;5079025;27;88110;-58
2023/09/09 12:04:54;;;;;;;5.50;3.70;;;32.20;45.70;;;;;;5058478;27;87373;-60
2023/09/09 12:07:25;;;;;;;3.87;3.47;;;32.20;45.60;;;;;;5057698;27;89234;-59
2023/09/09 12:09:55;;;;;;;6.03;3.80;;;32.20;45.60;;;;;;5078418;27;88144;-58
2023/09/09 12:12:23;;;;;;;4.83;3.77;;;32.20;45.60;;;;;;5079042;27;87602;-59
2023/09/09 12:14:51;;;;;;;5.53;3.70;;;32.20;45.60;;;;;;5075259;27;90172;-58
2023/09/09 12:17:19;;;;;;;5.90;3.93;;;32.20;45.50;;;;;;5068096;27;87979;-59
2023/09/09 12:19:54;;;;;;;7.20;3.57;;;32.20;45.60;;;;;;5078739;27;87764;-59
2023/09/09 12:22:31;;;;;;;4.40;3.67;;;32.30;45.70;;;;;;5078630;27;88174;-58
2023/09/09 12:25:04;;;;;;;4.73;3.27;;;32.30;45.50;;;;;;5077717;27;89613;-58
2023/09/09 12:27:42;;;;;;;6.03;3.60;;;32.30;45.50;;;;;;5078300;27;87994;-58
2023/09/09 12:30:32;;;;;;;4.33;3.33;;;32.30;45.50;;;;;;5077054;27;87834;-58
2023/09/09 12:33:07;;;;;;;7.50;3.67;;;32.40;45.50;;;;;;5058027;27;87608;-59
2023/09/09 12:35:35;;;;;;;6.47;3.77;;;32.40;45.40;;;;;;5075979;27;89521;-58
2023/09/09 12:38:05;;;;;;;8.20;3.87;;;32.40;45.30;;;;;;5075382;27;89297;-59
2023/09/09 12:40:50;;;;;;;6.07;3.37;;;32.50;45.40;;;;;;5077806;27;88758;-60
2023/09/09 12:43:18;;;;;;;5.73;4.07;;;32.50;45.30;;;;;;5057878;27;87488;-60
2023/09/09 12:45:48;;;;;;;3.50;3.20;;;32.60;45.30;;;;;;5057457;27;88567;-59